Geronimo, Oklahoma
Current Conditions -  °F | °C
As of 5:53 AM on Wednesday 28 Jan 2015 (Local Time) from KLAW Reporting Station
Clear Clear  
Wind Chill: 36°   Ceiling: Unl
Heat Index: 36°   Visibility: 10mi
Dew Point: 33°   Wind: 0mph
Humidity: 89%   Direction: NA
Pressure: 30.03"   Gusts: NA
Location:  34.48°N, 98.38°W
Report Text: KLAW 281153Z AUTO 00000KT 10SM CLR 02/01 A3003 RMK AO2 SLP168 T00220006 10106 20011 56007
Loading
Personal Weather Stations






























Interactive Weather Map New forecast layout! Learn more

10-Day Weather Forecast

Advertisements
Track Severe Weather on mobile